x

Virginia Beach 64 Nm East Of Virginia Beach, Va (44014) Wave Buoy

4:50 - Wed 20th Aug 2014 All times are EDT. -4 hours from GMT.

  • Sig Wave height 2.6ft
  • Peak Period 5s
  • Wind
    9mph
  • Sea Temp 79°f
  • Ar Temp 78°f
  • Sea Pressure 1014.4mb
  • Virginia Beach 64 Nm East Of Virginia Beach, Va
  • Virginia Beach 64 Nm East Of Virginia Beach, Va

More Historic Weather Station data

Upgrade to MSW Pro to gain access to the past 30 days of data for over 8000 Wavebouys and Weather Stations around the globe.

Join Pro

Comparision Forecast

View Surf forecast
   
Qua 08/20 4:50 2.5ft 5s 9
mph
1014.4mb 79f 78f
3:50 3ft 5s 9 11 mph 1014.1mb 79f 78f
2:50 3.5ft 6s 9 11 mph 1014.4mb 78f 77f
1:50 3.5ft 5s 11 13 mph 1014.6mb 78f 77f
12:50 3.5ft 6s 13 16 mph 1014.4mb 78f 77f
11:50 3ft 5s 13
mph
1014.4mb 78f 77f
10:50 3.5ft 5s 13 16 mph 1014.2mb 78f 78f
9:50 3.5ft 5s 11 13 mph 1013.9mb 78f 78f
8:50 3.5ft 6s 13 16 mph 1013.2mb 78f 78f
7:50 3.5ft 6s 13 16 mph 1012.6mb 78f 78f
6:50 3.5ft 6s 16 18 mph 1011.6mb 78f 77f
5:50 3.5ft 6s 13 16 mph 1011.1mb 78f 77f
4:50 3ft 6s 16 18 mph 1010.8mb 78f 77f
3:50 3ft 6s 13 16 mph 1010.4mb 78f 77f
2:50 3ft 5s 11 13 mph 1010.4mb 78f 77f
1:50 3ft 5s 4 9 mph 1010.6mb 78f 77f
12:50 3ft 7s 7 9 mph 1010.7mb 78f 78f
Ter 08/19 11:50 3ft 6s 9 11 mph 1010.5mb 78f 78f
10:50 3ft 7s 11 13 mph 1010.3mb 78f 78f
9:50 3ft 6s 16 18 mph 1010.3mb 78f 78f
8:50 2.5ft 6s 16 18 mph 1009.7mb 79f 78f
7:50 3ft 6s 9
mph
1009.3mb 79f 77f
6:50 3ft 7s 4 7 mph 1009.2mb 79f 78f
5:50 2.5ft 6s 4
mph
1008.9mb 79f 78f
4:50 2.5ft 6s 7
mph
1008.9mb 79f 78f
3:50 2.5ft 6s 7 11 mph 1008.8mb 79f 78f
2:50 2.5ft 6s 7
mph
1008.6mb 79f 77f
1:50 2.5ft 6s 7 9 mph 1009mb 79f 77f
12:50 2.5ft 5s 7 9 mph 1009.2mb 78f 77f
11:50 2.5ft 6s 9 11 mph 1009.4mb 78f 77f
10:50 2.5ft 6s 9 11 mph 1009.3mb 78f 77f
9:50 2.5ft 5s 7 9 mph 1009.2mb 78f 77f
8:50 2.5ft 5s 9 11 mph 1008.7mb 78f 77f
7:50 2.5ft 5s 4 7 mph 1008.4mb 78f 77f
6:50 2.5ft 5s 7 9 mph 1008.3mb 78f 77f
5:50 2.5ft 5s 4 7 mph 1008.1mb 78f 78f
4:50 2.5ft 5s 4 7 mph 1007.4mb 78f 77f
3:50 2ft 4s  -  2 mph 1007.8mb 78f 78f
2:50 2ft 9s 4
mph
1008.1mb 78f 78f
1:50 2ft 4s 7
mph
1008.8mb 78f 78f
12:50 2ft 5s 11 16 mph 1010mb 78f 78f
Seg 08/18 11:50 2ft 4s 9 11 mph 1010mb 78f 77f
10:50 2ft 4s 9 11 mph 1010mb 78f 76f
9:50 2.5ft 8s 9
mph
1010.1mb 78f 76f
8:50 2.5ft 4s 7 9 mph 1010.3mb 78f 75f
7:50 2ft 8s 20 22 mph 1010.6mb 78f 76f
6:50 1.6ft 6s 11 20 mph 1010.5mb 78f 79f
5:50 1.3ft 7s 7 9 mph 1010.5mb 78f 78f
4:50 1.3ft 7s 7 9 mph 1010.3mb 79f 79f
3:50 1.3ft 8s 4 7 mph 1010.5mb 79f 78f
2:50 1.3ft 7s 7
mph
1011.2mb 78f 78f
1:50 1.3ft 8s 7
mph
1011.7mb 79f 78f
12:50 1.3ft 8s 4
mph
1012.2mb 80f 79f
11:50 1.3ft 8s  -  2 mph 1012.8mb 79f 79f
10:50 1.3ft 9s  -  mph 1012.8mb 78f 78f
9:50 1.3ft 8s 2 4 mph 1012.9mb 78f 77f
8:50 1.3ft 10s 4
mph
1012.9mb 77f 77f
7:50 1.3ft 9s 4
mph
1012.7mb 78f 78f
6:50 1.6ft 6s 4 7 mph 1012.3mb 78f 77f
5:50 1.6ft 8s 2
mph
1012.2mb 78f 77f
4:50 1.6ft 8s 4
mph
1011.9mb 78f 78f
3:50 1.6ft 8s 7
mph
1011.7mb 78f 78f
2:50 1.6ft 9s 4 7 mph 1012mb 78f 78f
1:50 1.3ft 8s 7
mph
1012.3mb 78f 78f
12:50 1.3ft 7s 9
mph
1012.7mb 78f 78f
Dom 08/17 11:50 1.6ft 8s 9
mph
1012.8mb 78f 78f
10:50 1.3ft 8s 9 11 mph 1012.5mb 78f 79f
9:50 1.3ft 9s 9 13 mph 1012.5mb 78f 79f
8:50 1.3ft 9s 11 13 mph 1012.3mb 78f 79f
7:50 1.3ft 8s 11 13 mph 1012.2mb 78f 79f
6:50 1.6ft 8s 11 13 mph 1012.3mb 78f 79f
5:50 1.6ft 8s 11 13 mph 1012.6mb 78f 79f
4:50 1.6ft 8s 7 9 mph 1012.6mb 78f 78f
3:50 1.6ft 8s 9
mph
1012.6mb 78f 78f
2:50 1.6ft 8s 11 13 mph 1013mb 78f 78f
1:50 2ft 8s 13 16 mph 1013.4mb 78f 78f
12:50 1.6ft 8s 11 13 mph 1014mb 77f 78f
11:50 2ft 8s 9 11 mph 1014.3mb 77f 77f
10:50 2ft 4s 11 13 mph 1014.4mb 77f 77f
9:50 2ft 4s 11 13 mph 1014mb 77f 77f
8:50 2.5ft 4s 11 13 mph 1014.4mb 77f 77f
7:50 2.5ft 4s 11
mph
1014.2mb 77f 77f
6:50 2.5ft 4s 11 13 mph 1014.2mb 77f 77f
5:50 2.5ft 8s 11 13 mph 1014mb 77f 77f
4:50 2.5ft 8s 13
mph
1013.8mb 77f 77f
3:50 2.5ft 8s 16 18 mph 1013.9mb 77f 78f
2:50 2.5ft 8s 16 18 mph 1014.1mb 77f 78f
1:50 2.5ft 4s 16 18 mph 1014.3mb 77f 78f
12:50 3ft 4s 16 20 mph 1014.9mb 77f 79f
Sáb 08/16 11:50 2.5ft 4s 18 22 mph 1015mb 77f 79f
10:50 2.5ft 9s 18 20 mph 1015.2mb 77f 79f